sensor_id;sensor_type;location;lat;lon;timestamp;pressure;altitude;pressure_sealevel;temperature;humidity
71151;BME280;59071;42.138;24.768;2023-05-17T00:01:55;99141.47;;;15.05;69.18
71151;BME280;59071;42.138;24.768;2023-05-17T00:04:21;99152.03;;;15.12;68.74
71151;BME280;59071;42.138;24.768;2023-05-17T00:06:46;99156.25;;;15.08;69.66
71151;BME280;59071;42.138;24.768;2023-05-17T00:09:11;99150.59;;;14.54;71.25
71151;BME280;59071;42.138;24.768;2023-05-17T00:11:37;99156.94;;;14.47;71.81
71151;BME280;59071;42.138;24.768;2023-05-17T00:14:02;99164.00;;;14.71;71.19
71151;BME280;59071;42.138;24.768;2023-05-17T00:16:27;99158.72;;;14.42;72.75
71151;BME280;59071;42.138;24.768;2023-05-17T00:18:52;99161.22;;;14.48;72.79
71151;BME280;59071;42.138;24.768;2023-05-17T00:21:18;99158.78;;;14.98;72.03
71151;BME280;59071;42.138;24.768;2023-05-17T00:23:43;99159.06;;;15.18;70.63
71151;BME280;59071;42.138;24.768;2023-05-17T00:26:09;99170.69;;;15.46;69.57
71151;BME280;59071;42.138;24.768;2023-05-17T00:28:34;99163.06;;;15.38;70.86
71151;BME280;59071;42.138;24.768;2023-05-17T00:30:59;99166.16;;;14.91;73.04
71151;BME280;59071;42.138;24.768;2023-05-17T00:33:25;99166.81;;;14.98;73.23
71151;BME280;59071;42.138;24.768;2023-05-17T00:35:50;99167.06;;;14.96;73.07
71151;BME280;59071;42.138;24.768;2023-05-17T00:38:15;99158.41;;;14.89;73.73
71151;BME280;59071;42.138;24.768;2023-05-17T00:40:41;99158.38;;;15.06;73.53
71151;BME280;59071;42.138;24.768;2023-05-17T00:43:06;99156.50;;;15.29;73.32
71151;BME280;59071;42.138;24.768;2023-05-17T00:45:31;99155.19;;;15.53;71.85
71151;BME280;59071;42.138;24.768;2023-05-17T00:47:56;99139.88;;;15.49;72.12
71151;BME280;59071;42.138;24.768;2023-05-17T00:50:22;99140.06;;;15.86;70.66
71151;BME280;59071;42.138;24.768;2023-05-17T00:52:47;99136.59;;;15.69;71.40
71151;BME280;59071;42.138;24.768;2023-05-17T00:55:12;99130.69;;;15.00;74.38
71151;BME280;59071;42.138;24.768;2023-05-17T00:57:38;99121.59;;;15.01;75.11
71151;BME280;59071;42.138;24.768;2023-05-17T01:00:03;99124.81;;;14.81;75.89
71151;BME280;59071;42.138;24.768;2023-05-17T01:02:29;99126.72;;;15.03;75.59
71151;BME280;59071;42.138;24.768;2023-05-17T01:04:54;99131.09;;;14.92;75.79
71151;BME280;59071;42.138;24.768;2023-05-17T01:07:20;99134.69;;;15.20;75.34
71151;BME280;59071;42.138;24.768;2023-05-17T01:09:45;99143.31;;;15.22;74.56
71151;BME280;59071;42.138;24.768;2023-05-17T01:17:49;99142.09;;;15.57;72.96
71151;BME280;59071;42.138;24.768;2023-05-17T01:20:17;99146.53;;;15.68;72.55
71151;BME280;59071;42.138;24.768;2023-05-17T01:22:48;99144.56;;;15.80;72.50
71151;BME280;59071;42.138;24.768;2023-05-17T01:28:00;99140.50;;;15.78;72.32
71151;BME280;59071;42.138;24.768;2023-05-17T01:30:25;99128.78;;;15.84;73.34
71151;BME280;59071;42.138;24.768;2023-05-17T01:32:54;99117.97;;;16.06;71.79
71151;BME280;59071;42.138;24.768;2023-05-17T01:35:21;99113.84;;;16.26;70.80
71151;BME280;59071;42.138;24.768;2023-05-17T01:37:46;99112.28;;;16.30;70.28
71151;BME280;59071;42.138;24.768;2023-05-17T01:40:12;99111.69;;;16.22;70.80
71151;BME280;59071;42.138;24.768;2023-05-17T01:42:37;99111.63;;;16.17;71.05
71151;BME280;59071;42.138;24.768;2023-05-17T01:45:29;99095.47;;;16.12;70.82
71151;BME280;59071;42.138;24.768;2023-05-17T01:50:19;99112.34;;;16.40;70.41
71151;BME280;59071;42.138;24.768;2023-05-17T01:52:48;99087.44;;;15.85;71.66
71151;BME280;59071;42.138;24.768;2023-05-17T01:57:47;99115.09;;;16.13;72.17
71151;BME280;59071;42.138;24.768;2023-05-17T02:00:14;99116.50;;;16.20;71.48
71151;BME280;59071;42.138;24.768;2023-05-17T02:02:40;99120.16;;;16.41;70.88
71151;BME280;59071;42.138;24.768;2023-05-17T02:05:05;99124.00;;;16.51;70.61
71151;BME280;59071;42.138;24.768;2023-05-17T02:07:31;99117.03;;;16.60;70.24
71151;BME280;59071;42.138;24.768;2023-05-17T02:09:56;99106.28;;;16.60;69.93
71151;BME280;59071;42.138;24.768;2023-05-17T02:12:21;99104.88;;;16.47;70.88
71151;BME280;59071;42.138;24.768;2023-05-17T02:14:47;99112.16;;;16.52;71.07
71151;BME280;59071;42.138;24.768;2023-05-17T02:17:12;99109.28;;;16.58;70.73
71151;BME280;59071;42.138;24.768;2023-05-17T02:19:37;99118.16;;;16.64;70.46
71151;BME280;59071;42.138;24.768;2023-05-17T02:22:03;99117.09;;;16.65;70.12
71151;BME280;59071;42.138;24.768;2023-05-17T02:24:28;99123.59;;;16.74;69.82
71151;BME280;59071;42.138;24.768;2023-05-17T02:26:53;99120.75;;;16.86;69.06
71151;BME280;59071;42.138;24.768;2023-05-17T02:29:18;99123.06;;;16.72;69.80
71151;BME280;59071;42.138;24.768;2023-05-17T02:31:44;99113.25;;;16.56;70.77
71151;BME280;59071;42.138;24.768;2023-05-17T02:34:10;99119.25;;;16.68;70.21
71151;BME280;59071;42.138;24.768;2023-05-17T02:36:35;99117.88;;;16.66;70.67
71151;BME280;59071;42.138;24.768;2023-05-17T02:39:00;99120.56;;;16.66;70.62
71151;BME280;59071;42.138;24.768;2023-05-17T02:41:25;99130.75;;;16.58;70.89
71151;BME280;59071;42.138;24.768;2023-05-17T02:43:51;99144.38;;;16.52;71.27
71151;BME280;59071;42.138;24.768;2023-05-17T02:46:16;99143.88;;;16.55;71.51
71151;BME280;59071;42.138;24.768;2023-05-17T02:48:41;99137.97;;;16.58;71.39
71151;BME280;59071;42.138;24.768;2023-05-17T02:51:07;99146.38;;;16.67;71.08
71151;BME280;59071;42.138;24.768;2023-05-17T02:53:32;99145.78;;;16.59;71.25
71151;BME280;59071;42.138;24.768;2023-05-17T02:55:57;99145.31;;;16.68;71.58
71151;BME280;59071;42.138;24.768;2023-05-17T02:58:25;99141.84;;;16.72;70.60
71151;BME280;59071;42.138;24.768;2023-05-17T03:00:53;99139.81;;;16.85;70.18
71151;BME280;59071;42.138;24.768;2023-05-17T03:03:19;99143.25;;;16.80;70.28
71151;BME280;59071;42.138;24.768;2023-05-17T03:05:44;99145.88;;;16.70;70.40
71151;BME280;59071;42.138;24.768;2023-05-17T03:08:09;99143.69;;;16.67;70.91
71151;BME280;59071;42.138;24.768;2023-05-17T03:10:35;99153.69;;;16.76;70.54
71151;BME280;59071;42.138;24.768;2023-05-17T03:13:00;99157.75;;;16.79;70.51
71151;BME280;59071;42.138;24.768;2023-05-17T03:15:25;99164.09;;;16.68;71.08
71151;BME280;59071;42.138;24.768;2023-05-17T03:17:53;99165.81;;;16.41;71.73
71151;BME280;59071;42.138;24.768;2023-05-17T03:20:18;99179.66;;;16.33;71.88
71151;BME280;59071;42.138;24.768;2023-05-17T03:22:44;99168.25;;;16.43;71.39
71151;BME280;59071;42.138;24.768;2023-05-17T03:25:09;99178.00;;;16.27;71.73
71151;BME280;59071;42.138;24.768;2023-05-17T03:27:34;99174.31;;;15.79;75.03
71151;BME280;59071;42.138;24.768;2023-05-17T03:30:00;99178.81;;;16.00;74.60
71151;BME280;59071;42.138;24.768;2023-05-17T03:32:25;99177.97;;;15.73;75.23
71151;BME280;59071;42.138;24.768;2023-05-17T03:34:51;99172.97;;;15.76;83.66
71151;BME280;59071;42.138;24.768;2023-05-17T03:37:16;99182.41;;;15.62;76.53
71151;BME280;59071;42.138;24.768;2023-05-17T03:39:41;99189.50;;;15.51;76.71
71151;BME280;59071;42.138;24.768;2023-05-17T03:42:07;99181.44;;;15.95;75.65
71151;BME280;59071;42.138;24.768;2023-05-17T03:44:32;99185.75;;;16.23;73.17
71151;BME280;59071;42.138;24.768;2023-05-17T03:46:57;99184.09;;;15.90;74.96
71151;BME280;59071;42.138;24.768;2023-05-17T03:49:23;99195.38;;;15.70;75.85
71151;BME280;59071;42.138;24.768;2023-05-17T03:51:48;99187.78;;;15.84;75.21
71151;BME280;59071;42.138;24.768;2023-05-17T03:54:13;99189.72;;;15.89;75.27
71151;BME280;59071;42.138;24.768;2023-05-17T03:56:39;99169.47;;;16.03;73.65
71151;BME280;59071;42.138;24.768;2023-05-17T03:59:04;99184.50;;;16.04;74.95
71151;BME280;59071;42.138;24.768;2023-05-17T04:01:29;99183.91;;;16.24;73.35
71151;BME280;59071;42.138;24.768;2023-05-17T04:03:55;99182.41;;;16.38;72.97
71151;BME280;59071;42.138;24.768;2023-05-17T04:06:20;99189.22;;;15.92;74.69
71151;BME280;59071;42.138;24.768;2023-05-17T04:08:45;99191.19;;;16.01;74.90
71151;BME280;59071;42.138;24.768;2023-05-17T04:11:10;99189.25;;;16.51;76.55
71151;BME280;59071;42.138;24.768;2023-05-17T04:13:40;99193.28;;;16.54;73.79
71151;BME280;59071;42.138;24.768;2023-05-17T04:16:07;99196.69;;;16.76;72.72
71151;BME280;59071;42.138;24.768;2023-05-17T04:18:33;99195.78;;;16.93;71.86
71151;BME280;59071;42.138;24.768;2023-05-17T04:20:58;99202.19;;;16.92;71.61
71151;BME280;59071;42.138;24.768;2023-05-17T04:23:24;99201.00;;;17.15;70.95
71151;BME280;59071;42.138;24.768;2023-05-17T04:25:50;99195.72;;;17.30;70.48
71151;BME280;59071;42.138;24.768;2023-05-17T04:28:15;99193.47;;;17.12;71.05
71151;BME280;59071;42.138;24.768;2023-05-17T04:30:41;99195.06;;;17.08;71.78
71151;BME280;59071;42.138;24.768;2023-05-17T04:33:07;99194.31;;;17.23;71.25
71151;BME280;59071;42.138;24.768;2023-05-17T04:35:32;99192.94;;;17.15;71.13
71151;BME280;59071;42.138;24.768;2023-05-17T04:37:57;99189.84;;;16.96;71.01
71151;BME280;59071;42.138;24.768;2023-05-17T04:40:22;99184.28;;;17.03;70.81
71151;BME280;59071;42.138;24.768;2023-05-17T04:42:48;99179.19;;;17.11;70.38
71151;BME280;59071;42.138;24.768;2023-05-17T04:45:13;99177.75;;;17.41;69.00
71151;BME280;59071;42.138;24.768;2023-05-17T04:47:40;99177.25;;;17.49;68.47
71151;BME280;59071;42.138;24.768;2023-05-17T04:50:05;99177.72;;;17.31;69.52
71151;BME280;59071;42.138;24.768;2023-05-17T04:52:30;99177.81;;;17.04;71.33
71151;BME280;59071;42.138;24.768;2023-05-17T04:54:56;99179.50;;;16.77;73.89
71151;BME280;59071;42.138;24.768;2023-05-17T04:57:21;99181.75;;;16.86;73.76
71151;BME280;59071;42.138;24.768;2023-05-17T04:59:47;99178.69;;;17.14;73.02
71151;BME280;59071;42.138;24.768;2023-05-17T05:02:12;99186.63;;;16.94;73.09
71151;BME280;59071;42.138;24.768;2023-05-17T05:04:38;99180.94;;;17.33;72.16
71151;BME280;59071;42.138;24.768;2023-05-17T05:07:03;99190.84;;;17.22;72.57
71151;BME280;59071;42.138;24.768;2023-05-17T05:09:29;99195.72;;;16.88;73.71
71151;BME280;59071;42.138;24.768;2023-05-17T05:11:55;99194.97;;;16.97;74.36
71151;BME280;59071;42.138;24.768;2023-05-17T05:14:20;99198.56;;;17.08;74.23
71151;BME280;59071;42.138;24.768;2023-05-17T05:16:45;99199.00;;;16.95;74.83
71151;BME280;59071;42.138;24.768;2023-05-17T05:19:10;99198.97;;;16.90;75.24
71151;BME280;59071;42.138;24.768;2023-05-17T05:21:36;99197.97;;;17.49;73.45
71151;BME280;59071;42.138;24.768;2023-05-17T05:24:01;99201.59;;;17.80;72.13
71151;BME280;59071;42.138;24.768;2023-05-17T05:26:28;99201.72;;;18.21;70.72
71151;BME280;59071;42.138;24.768;2023-05-17T05:28:53;99206.88;;;18.59;69.17
71151;BME280;59071;42.138;24.768;2023-05-17T05:31:20;99193.69;;;18.83;68.19
71151;BME280;59071;42.138;24.768;2023-05-17T05:33:46;99189.31;;;19.12;67.59
71151;BME280;59071;42.138;24.768;2023-05-17T05:36:11;99189.28;;;19.28;66.44
71151;BME280;59071;42.138;24.768;2023-05-17T05:38:36;99197.91;;;19.30;67.98
71151;BME280;59071;42.138;24.768;2023-05-17T05:41:01;99199.75;;;19.40;67.93
71151;BME280;59071;42.138;24.768;2023-05-17T05:43:27;99204.56;;;19.58;65.96
71151;BME280;59071;42.138;24.768;2023-05-17T05:45:52;99205.34;;;19.64;65.02
71151;BME280;59071;42.138;24.768;2023-05-17T05:48:17;99211.41;;;19.30;65.23
71151;BME280;59071;42.138;24.768;2023-05-17T05:50:43;99204.97;;;19.16;65.68
71151;BME280;59071;42.138;24.768;2023-05-17T05:53:08;99207.06;;;19.39;65.47
71151;BME280;59071;42.138;24.768;2023-05-17T05:55:34;99204.38;;;19.34;65.47
71151;BME280;59071;42.138;24.768;2023-05-17T05:57:59;99197.91;;;19.35;64.98
71151;BME280;59071;42.138;24.768;2023-05-17T06:00:25;99193.88;;;19.17;64.85
71151;BME280;59071;42.138;24.768;2023-05-17T06:02:50;99196.63;;;19.12;65.39
71151;BME280;59071;42.138;24.768;2023-05-17T06:05:17;99188.03;;;18.84;66.60
71151;BME280;59071;42.138;24.768;2023-05-17T06:07:42;99188.59;;;18.81;67.59
71151;BME280;59071;42.138;24.768;2023-05-17T06:10:08;99186.66;;;18.76;68.48
71151;BME280;59071;42.138;24.768;2023-05-17T06:12:33;99186.38;;;18.78;67.84
71151;BME280;59071;42.138;24.768;2023-05-17T06:14:58;99191.53;;;18.64;70.02
71151;BME280;59071;42.138;24.768;2023-05-17T06:17:24;99200.41;;;18.90;68.68
71151;BME280;59071;42.138;24.768;2023-05-17T06:19:49;99209.06;;;18.92;67.84
71151;BME280;59071;42.138;24.768;2023-05-17T06:22:14;99219.97;;;19.47;65.97
71151;BME280;59071;42.138;24.768;2023-05-17T06:24:40;99219.38;;;19.66;65.26
71151;BME280;59071;42.138;24.768;2023-05-17T06:27:05;99222.22;;;19.95;63.69
71151;BME280;59071;42.138;24.768;2023-05-17T06:29:31;99220.22;;;20.16;63.08
71151;BME280;59071;42.138;24.768;2023-05-17T06:31:56;99201.44;;;20.40;61.61
71151;BME280;59071;42.138;24.768;2023-05-17T06:34:23;99200.81;;;20.48;61.65
71151;BME280;59071;42.138;24.768;2023-05-17T06:36:49;99206.72;;;20.61;59.99
71151;BME280;59071;42.138;24.768;2023-05-17T06:39:14;99201.31;;;20.56;60.72
71151;BME280;59071;42.138;24.768;2023-05-17T06:41:39;99203.22;;;20.55;60.43
71151;BME280;59071;42.138;24.768;2023-05-17T06:44:05;99210.19;;;20.96;59.51
71151;BME280;59071;42.138;24.768;2023-05-17T06:46:30;99215.88;;;21.23;59.38
71151;BME280;59071;42.138;24.768;2023-05-17T06:48:55;99217.19;;;21.26;58.92
71151;BME280;59071;42.138;24.768;2023-05-17T06:51:20;99225.59;;;21.54;58.58
71151;BME280;59071;42.138;24.768;2023-05-17T06:53:46;99230.28;;;21.43;58.33
71151;BME280;59071;42.138;24.768;2023-05-17T06:56:11;99231.00;;;21.54;57.86
71151;BME280;59071;42.138;24.768;2023-05-17T06:58:36;99234.56;;;21.73;57.42
71151;BME280;59071;42.138;24.768;2023-05-17T07:01:02;99242.19;;;21.47;57.61
71151;BME280;59071;42.138;24.768;2023-05-17T07:03:27;99246.72;;;21.76;57.35
71151;BME280;59071;42.138;24.768;2023-05-17T07:05:52;99252.34;;;21.79;56.62
71151;BME280;59071;42.138;24.768;2023-05-17T07:08:18;99251.63;;;21.74;56.27
71151;BME280;59071;42.138;24.768;2023-05-17T07:10:43;99255.88;;;21.80;56.23
71151;BME280;59071;42.138;24.768;2023-05-17T07:13:08;99265.19;;;21.93;56.45
71151;BME280;59071;42.138;24.768;2023-05-17T07:15:33;99268.41;;;21.95;56.48
71151;BME280;59071;42.138;24.768;2023-05-17T07:17:59;99271.00;;;22.05;56.06
71151;BME280;59071;42.138;24.768;2023-05-17T07:20:24;99264.56;;;22.01;56.09
71151;BME280;59071;42.138;24.768;2023-05-17T07:22:50;99265.94;;;21.98;55.59
71151;BME280;59071;42.138;24.768;2023-05-17T07:25:15;99260.56;;;21.93;55.83
71151;BME280;59071;42.138;24.768;2023-05-17T07:27:42;99248.34;;;21.23;56.52
71151;BME280;59071;42.138;24.768;2023-05-17T07:30:08;99249.88;;;21.35;56.83
71151;BME280;59071;42.138;24.768;2023-05-17T07:32:33;99250.47;;;21.56;56.25
71151;BME280;59071;42.138;24.768;2023-05-17T07:34:58;99256.34;;;21.63;55.82
71151;BME280;59071;42.138;24.768;2023-05-17T07:37:26;99253.00;;;21.47;56.64
71151;BME280;59071;42.138;24.768;2023-05-17T07:39:51;99253.19;;;21.56;56.60
71151;BME280;59071;42.138;24.768;2023-05-17T07:42:16;99244.28;;;21.55;56.58
71151;BME280;59071;42.138;24.768;2023-05-17T07:44:41;99244.78;;;21.57;56.58
71151;BME280;59071;42.138;24.768;2023-05-17T07:47:07;99229.22;;;21.15;57.44
71151;BME280;59071;42.138;24.768;2023-05-17T07:49:32;99225.38;;;20.57;60.20
71151;BME280;59071;42.138;24.768;2023-05-17T07:51:57;99234.09;;;20.44;62.33
71151;BME280;59071;42.138;24.768;2023-05-17T07:54:26;99241.41;;;20.43;63.42
71151;BME280;59071;42.138;24.768;2023-05-17T07:56:51;99243.50;;;20.57;63.34
71151;BME280;59071;42.138;24.768;2023-05-17T07:59:19;99251.50;;;20.72;61.93
71151;BME280;59071;42.138;24.768;2023-05-17T08:01:45;99256.13;;;20.72;63.21
71151;BME280;59071;42.138;24.768;2023-05-17T08:04:10;99247.63;;;20.83;63.12
71151;BME280;59071;42.138;24.768;2023-05-17T08:06:35;99252.47;;;20.86;63.09
71151;BME280;59071;42.138;24.768;2023-05-17T08:09:01;99259.97;;;20.95;62.46
71151;BME280;59071;42.138;24.768;2023-05-17T08:11:26;99246.47;;;20.95;63.17
71151;BME280;59071;42.138;24.768;2023-05-17T08:13:52;99244.13;;;20.83;64.22
71151;BME280;59071;42.138;24.768;2023-05-17T08:16:17;99242.16;;;20.88;63.59
71151;BME280;59071;42.138;24.768;2023-05-17T08:18:43;99230.78;;;20.92;63.82
71151;BME280;59071;42.138;24.768;2023-05-17T08:21:08;99230.00;;;20.91;64.11
71151;BME280;59071;42.138;24.768;2023-05-17T08:23:33;99234.66;;;20.80;64.58
71151;BME280;59071;42.138;24.768;2023-05-17T08:25:59;99232.63;;;20.67;64.40
71151;BME280;59071;42.138;24.768;2023-05-17T08:28:24;99226.16;;;20.63;63.56
71151;BME280;59071;42.138;24.768;2023-05-17T08:30:49;99225.88;;;20.64;64.14
71151;BME280;59071;42.138;24.768;2023-05-17T08:33:15;99226.38;;;20.72;64.19
71151;BME280;59071;42.138;24.768;2023-05-17T08:35:40;99226.16;;;20.63;65.86
71151;BME280;59071;42.138;24.768;2023-05-17T08:38:05;99224.28;;;20.58;65.37
71151;BME280;59071;42.138;24.768;2023-05-17T08:40:31;99223.78;;;20.56;65.28
71151;BME280;59071;42.138;24.768;2023-05-17T08:42:56;99240.78;;;20.57;65.87
71151;BME280;59071;42.138;24.768;2023-05-17T08:45:22;99257.91;;;20.42;67.23
71151;BME280;59071;42.138;24.768;2023-05-17T08:47:47;99260.38;;;20.33;66.48
71151;BME280;59071;42.138;24.768;2023-05-17T08:50:13;99263.69;;;20.25;66.74
71151;BME280;59071;42.138;24.768;2023-05-17T08:52:39;99263.69;;;20.20;67.44
71151;BME280;59071;42.138;24.768;2023-05-17T08:55:05;99266.63;;;20.28;67.68
71151;BME280;59071;42.138;24.768;2023-05-17T08:57:33;99263.94;;;20.28;68.14
71151;BME280;59071;42.138;24.768;2023-05-17T08:59:58;99265.50;;;20.35;67.80
71151;BME280;59071;42.138;24.768;2023-05-17T09:02:30;99266.56;;;20.39;67.26
71151;BME280;59071;42.138;24.768;2023-05-17T09:04:56;99266.81;;;20.42;67.28
71151;BME280;59071;42.138;24.768;2023-05-17T09:07:22;99265.50;;;20.35;67.68
71151;BME280;59071;42.138;24.768;2023-05-17T09:09:51;99263.13;;;20.28;68.15
71151;BME280;59071;42.138;24.768;2023-05-17T09:12:17;99258.03;;;20.16;68.44
71151;BME280;59071;42.138;24.768;2023-05-17T09:14:43;99254.38;;;19.97;69.57
71151;BME280;59071;42.138;24.768;2023-05-17T09:17:12;99254.41;;;19.91;70.10
71151;BME280;59071;42.138;24.768;2023-05-17T09:19:41;99244.13;;;19.94;70.20
71151;BME280;59071;42.138;24.768;2023-05-17T09:22:07;99240.41;;;19.84;70.31
71151;BME280;59071;42.138;24.768;2023-05-17T09:24:32;99242.56;;;19.82;70.68
71151;BME280;59071;42.138;24.768;2023-05-17T09:27:01;99242.03;;;19.80;70.62
71151;BME280;59071;42.138;24.768;2023-05-17T09:29:29;99233.50;;;19.42;72.40
71151;BME280;59071;42.138;24.768;2023-05-17T09:31:54;99227.56;;;19.35;72.71
71151;BME280;59071;42.138;24.768;2023-05-17T09:34:20;99231.13;;;19.15;73.34
71151;BME280;59071;42.138;24.768;2023-05-17T09:36:45;99231.66;;;19.22;73.44
71151;BME280;59071;42.138;24.768;2023-05-17T09:39:10;99239.50;;;18.83;75.51
71151;BME280;59071;42.138;24.768;2023-05-17T09:41:40;99244.91;;;18.93;75.41
71151;BME280;59071;42.138;24.768;2023-05-17T09:44:09;99255.16;;;18.91;75.22
71151;BME280;59071;42.138;24.768;2023-05-17T09:46:36;99253.78;;;18.93;75.31
71151;BME280;59071;42.138;24.768;2023-05-17T09:49:03;99258.09;;;18.84;76.26
71151;BME280;59071;42.138;24.768;2023-05-17T09:51:34;99241.66;;;18.86;77.09
71151;BME280;59071;42.138;24.768;2023-05-17T09:54:00;99246.22;;;18.70;77.07
71151;BME280;59071;42.138;24.768;2023-05-17T09:56:29;99247.22;;;18.23;77.90
71151;BME280;59071;42.138;24.768;2023-05-17T09:58:55;99241.13;;;17.79;80.49
71151;BME280;59071;42.138;24.768;2023-05-17T10:01:21;99248.78;;;17.45;83.20
71151;BME280;59071;42.138;24.768;2023-05-17T10:03:49;99247.06;;;17.82;80.81
71151;BME280;59071;42.138;24.768;2023-05-17T10:06:15;99249.13;;;18.27;78.75
71151;BME280;59071;42.138;24.768;2023-05-17T10:08:43;99240.25;;;18.42;77.30
71151;BME280;59071;42.138;24.768;2023-05-17T10:11:11;99237.31;;;18.59;75.67
71151;BME280;59071;42.138;24.768;2023-05-17T10:13:41;99239.78;;;18.97;74.36
71151;BME280;59071;42.138;24.768;2023-05-17T10:16:08;99242.19;;;18.98;74.40
71151;BME280;59071;42.138;24.768;2023-05-17T10:18:34;99232.75;;;18.95;73.98
71151;BME280;59071;42.138;24.768;2023-05-17T10:21:00;99226.53;;;19.10;73.53
71151;BME280;59071;42.138;24.768;2023-05-17T10:23:26;99231.91;;;19.21;72.73
71151;BME280;59071;42.138;24.768;2023-05-17T10:25:52;99229.25;;;19.16;73.54
71151;BME280;59071;42.138;24.768;2023-05-17T10:28:17;99224.41;;;18.97;73.97
71151;BME280;59071;42.138;24.768;2023-05-17T10:30:44;99232.47;;;19.12;73.81
71151;BME280;59071;42.138;24.768;2023-05-17T10:33:12;99213.03;;;19.31;73.64
71151;BME280;59071;42.138;24.768;2023-05-17T10:35:40;99219.19;;;19.42;73.99
71151;BME280;59071;42.138;24.768;2023-05-17T10:38:05;99216.22;;;19.48;74.82
71151;BME280;59071;42.138;24.768;2023-05-17T10:40:30;99213.50;;;19.48;73.80
71151;BME280;59071;42.138;24.768;2023-05-17T10:42:56;99212.19;;;19.41;74.63
71151;BME280;59071;42.138;24.768;2023-05-17T10:45:23;99224.13;;;19.14;73.85
71151;BME280;59071;42.138;24.768;2023-05-17T10:47:52;99222.97;;;19.30;72.47
71151;BME280;59071;42.138;24.768;2023-05-17T10:50:22;99219.78;;;19.23;73.09
71151;BME280;59071;42.138;24.768;2023-05-17T10:52:48;99231.69;;;18.91;74.35
71151;BME280;59071;42.138;24.768;2023-05-17T10:55:17;99225.50;;;18.91;75.50
71151;BME280;59071;42.138;24.768;2023-05-17T10:57:43;99220.63;;;19.08;75.26
71151;BME280;59071;42.138;24.768;2023-05-17T11:00:08;99226.84;;;18.83;75.97
71151;BME280;59071;42.138;24.768;2023-05-17T11:02:43;99220.34;;;19.10;75.23
71151;BME280;59071;42.138;24.768;2023-05-17T11:05:21;99220.34;;;19.05;74.21
71151;BME280;59071;42.138;24.768;2023-05-17T11:07:46;99217.88;;;19.29;72.31
71151;BME280;59071;42.138;24.768;2023-05-17T11:10:12;99221.38;;;19.29;73.44
71151;BME280;59071;42.138;24.768;2023-05-17T11:12:42;99215.69;;;19.46;72.75
71151;BME280;59071;42.138;24.768;2023-05-17T11:15:11;99204.84;;;19.57;73.00
71151;BME280;59071;42.138;24.768;2023-05-17T11:22:39;99205.19;;;20.05;72.34
71151;BME280;59071;42.138;24.768;2023-05-17T11:25:10;99205.13;;;20.15;71.64
71151;BME280;59071;42.138;24.768;2023-05-17T11:27:42;99200.75;;;20.24;71.45
71151;BME280;59071;42.138;24.768;2023-05-17T11:30:29;99188.00;;;20.30;71.50
71151;BME280;59071;42.138;24.768;2023-05-17T11:33:01;99196.84;;;20.41;70.60
71151;BME280;59071;42.138;24.768;2023-05-17T11:35:27;99199.00;;;20.39;70.82
71151;BME280;59071;42.138;24.768;2023-05-17T11:38:10;99199.78;;;20.44;70.01
71151;BME280;59071;42.138;24.768;2023-05-17T11:40:37;99195.16;;;20.50;69.94
71151;BME280;59071;42.138;24.768;2023-05-17T11:43:16;99184.91;;;20.47;70.23
71151;BME280;59071;42.138;24.768;2023-05-17T11:45:49;99181.59;;;20.55;70.56
71151;BME280;59071;42.138;24.768;2023-05-17T11:48:15;99180.22;;;20.63;70.05
71151;BME280;59071;42.138;24.768;2023-05-17T11:50:41;99181.59;;;20.60;69.98
71151;BME280;59071;42.138;24.768;2023-05-17T11:53:07;99183.69;;;20.68;69.83
71151;BME280;59071;42.138;24.768;2023-05-17T11:55:37;99182.06;;;20.67;69.41
71151;BME280;59071;42.138;24.768;2023-05-17T11:58:04;99185.34;;;20.64;69.55
71151;BME280;59071;42.138;24.768;2023-05-17T12:00:31;99177.38;;;20.44;70.42
71151;BME280;59071;42.138;24.768;2023-05-17T12:02:56;99176.56;;;20.43;70.62
71151;BME280;59071;42.138;24.768;2023-05-17T12:05:21;99170.19;;;20.29;71.46
71151;BME280;59071;42.138;24.768;2023-05-17T12:07:47;99174.81;;;20.23;71.44
71151;BME280;59071;42.138;24.768;2023-05-17T12:10:14;99180.91;;;20.05;72.75
71151;BME280;59071;42.138;24.768;2023-05-17T12:12:40;99176.53;;;20.09;72.56
71151;BME280;59071;42.138;24.768;2023-05-17T12:15:06;99167.66;;;20.03;73.07
71151;BME280;59071;42.138;24.768;2023-05-17T12:17:36;99172.72;;;19.60;75.16
71151;BME280;59071;42.138;24.768;2023-05-17T12:20:06;99163.06;;;19.44;76.10
71151;BME280;59071;42.138;24.768;2023-05-17T12:22:31;99160.84;;;19.61;74.71
71151;BME280;59071;42.138;24.768;2023-05-17T12:24:57;99177.44;;;19.24;76.56
71151;BME280;59071;42.138;24.768;2023-05-17T12:27:25;99177.09;;;19.46;75.87
71151;BME280;59071;42.138;24.768;2023-05-17T12:29:51;99184.09;;;19.42;75.37
71151;BME280;59071;42.138;24.768;2023-05-17T12:32:17;99176.31;;;19.35;75.67
71151;BME280;59071;42.138;24.768;2023-05-17T12:34:42;99179.59;;;19.27;75.15
71151;BME280;59071;42.138;24.768;2023-05-17T12:37:07;99181.41;;;19.47;74.81
71151;BME280;59071;42.138;24.768;2023-05-17T12:39:34;99173.81;;;19.59;74.91
71151;BME280;59071;42.138;24.768;2023-05-17T12:42:00;99178.38;;;19.64;74.90
71151;BME280;59071;42.138;24.768;2023-05-17T12:44:25;99176.19;;;19.71;74.64
71151;BME280;59071;42.138;24.768;2023-05-17T12:46:50;99174.75;;;19.89;73.81
71151;BME280;59071;42.138;24.768;2023-05-17T12:49:20;99170.09;;;20.05;73.30
71151;BME280;59071;42.138;24.768;2023-05-17T12:51:46;99167.59;;;20.14;72.80
71151;BME280;59071;42.138;24.768;2023-05-17T12:54:12;99160.75;;;20.26;72.26
71151;BME280;59071;42.138;24.768;2023-05-17T12:56:40;99159.63;;;20.33;72.41
71151;BME280;59071;42.138;24.768;2023-05-17T13:01:34;99158.47;;;20.39;71.66
71151;BME280;59071;42.138;24.768;2023-05-17T13:04:00;99152.78;;;20.45;70.81
71151;BME280;59071;42.138;24.768;2023-05-17T13:06:25;99148.44;;;20.44;70.75